Time;durP1;ratioP1;P1;durP2;ratioP2;P2;SDS_P1;SDS_P2;PMS_P1;PMS_P2;Temp;Humidity;BMP_temperature;BMP_pressure;BME280_temperature;BME280_humidity;BME280_pressure;Samples;Min_cycle;Max_cycle;Signal;HPM_P1;HPM_P2
2022/07/22 00:00:05;;;;;;;5.32;1.80;;;;;;;;;;5032631;28;20025;-71
2022/07/22 00:02:30;;;;;;;3.45;2.22;;;;;;;;;;5033057;28;20049;-72
2022/07/22 00:04:55;;;;;;;4.85;2.50;;;;;;;;;;5032626;28;20052;-71
2022/07/22 00:07:21;;;;;;;2.42;1.88;;;;;;;;;;5035887;28;20451;-71
2022/07/22 00:09:46;;;;;;;7.80;2.65;;;;;;;;;;5036668;28;20040;-71
2022/07/22 00:12:11;;;;;;;6.43;1.98;;;;;;;;;;5037142;28;20028;-71
2022/07/22 00:14:36;;;;;;;4.22;2.00;;;;;;;;;;5036563;28;20025;-71
2022/07/22 00:17:02;;;;;;;4.80;2.30;;;;;;;;;;5036657;28;20030;-72
2022/07/22 00:19:27;;;;;;;3.20;2.05;;;;;;;;;;5036492;28;20021;-71
2022/07/22 00:21:53;;;;;;;4.15;2.25;;;;;;;;;;5037082;28;20013;-71
2022/07/22 00:24:18;;;;;;;3.85;1.95;;;;;;;;;;5036184;28;20473;-71
2022/07/22 00:26:43;;;;;;;4.10;2.38;;;;;;;;;;5036352;28;20056;-71
2022/07/22 00:29:09;;;;;;;4.57;2.13;;;;;;;;;;5036260;28;20385;-71
2022/07/22 00:31:34;;;;;;;5.30;2.30;;;;;;;;;;5036314;28;20037;-71
2022/07/22 00:34:02;;;;;;;4.18;2.00;;;;;;;;;;5036505;28;20025;-71
2022/07/22 00:36:28;;;;;;;3.75;2.10;;;;;;;;;;5036468;28;20515;-71
2022/07/22 00:38:54;;;;;;;4.90;2.03;;;;;;;;;;5035855;28;20029;-71
2022/07/22 00:41:19;;;;;;;2.10;1.20;;;;;;;;;;5036657;28;20045;-71
2022/07/22 00:43:50;;;;;;;5.82;2.00;;;;;;;;;;5035879;28;20108;-71
2022/07/22 00:46:15;;;;;;;6.47;2.55;;;;;;;;;;5036092;28;20041;-71
2022/07/22 00:48:41;;;;;;;4.68;2.30;;;;;;;;;;5036006;28;20378;-71
2022/07/22 00:51:06;;;;;;;5.18;2.05;;;;;;;;;;5036358;28;20555;-71
2022/07/22 00:53:31;;;;;;;3.22;1.77;;;;;;;;;;5035242;28;20034;-71
2022/07/22 00:55:57;;;;;;;4.32;2.42;;;;;;;;;;5036471;28;20029;-71
2022/07/22 00:58:22;;;;;;;6.15;2.58;;;;;;;;;;5035663;28;20030;-71
2022/07/22 01:00:47;;;;;;;4.78;2.65;;;;;;;;;;5035533;28;20025;-71
2022/07/22 01:03:13;;;;;;;4.68;2.60;;;;;;;;;;5036169;28;20013;-72
2022/07/22 01:05:39;;;;;;;5.85;2.33;;;;;;;;;;5035121;28;20029;-71
2022/07/22 01:08:07;;;;;;;7.28;2.58;;;;;;;;;;5035308;28;20465;-71
2022/07/22 01:10:32;;;;;;;6.82;3.65;;;;;;;;;;5035600;28;20377;-71
2022/07/22 01:12:58;;;;;;;10.93;3.85;;;;;;;;;;5035156;28;20017;-71
2022/07/22 01:15:23;;;;;;;6.50;3.25;;;;;;;;;;5035523;28;20033;-72
2022/07/22 01:17:48;;;;;;;7.38;3.35;;;;;;;;;;5034664;28;20028;-71
2022/07/22 01:20:14;;;;;;;7.35;3.80;;;;;;;;;;5034392;28;20055;-71
2022/07/22 01:22:39;;;;;;;5.75;3.15;;;;;;;;;;5035473;28;20474;-71
2022/07/22 01:25:05;;;;;;;8.18;3.05;;;;;;;;;;5035227;28;20021;-71
2022/07/22 01:27:30;;;;;;;7.60;2.88;;;;;;;;;;5035354;28;20427;-71
2022/07/22 01:29:56;;;;;;;8.88;3.10;;;;;;;;;;5035275;28;20034;-72
2022/07/22 01:32:21;;;;;;;9.50;3.03;;;;;;;;;;5035461;28;20035;-71
2022/07/22 01:34:46;;;;;;;9.35;2.80;;;;;;;;;;5035108;28;20033;-71
2022/07/22 01:37:11;;;;;;;7.13;3.08;;;;;;;;;;5035601;28;20037;-71
2022/07/22 01:39:37;;;;;;;8.60;2.80;;;;;;;;;;5034868;28;20080;-71
2022/07/22 01:42:02;;;;;;;10.23;3.25;;;;;;;;;;5035395;28;20369;-72
2022/07/22 01:44:30;;;;;;;7.22;3.05;;;;;;;;;;5034901;28;20055;-71
2022/07/22 01:46:55;;;;;;;12.23;3.65;;;;;;;;;;5035037;28;20095;-71
2022/07/22 01:49:21;;;;;;;7.15;3.05;;;;;;;;;;5034840;28;20366;-72
2022/07/22 01:51:46;;;;;;;8.10;2.90;;;;;;;;;;5035133;28;20446;-71
2022/07/22 01:54:11;;;;;;;7.75;3.47;;;;;;;;;;5034894;28;20081;-71
2022/07/22 01:56:37;;;;;;;10.65;3.20;;;;;;;;;;5034827;28;20068;-71
2022/07/22 01:59:02;;;;;;;8.98;3.95;;;;;;;;;;5034509;28;20078;-71
2022/07/22 02:01:27;;;;;;;6.85;3.53;;;;;;;;;;5034812;28;20025;-71
2022/07/22 02:03:53;;;;;;;7.80;3.95;;;;;;;;;;5034850;28;20358;-71
2022/07/22 02:06:18;;;;;;;10.70;4.05;;;;;;;;;;5034897;28;20409;-71
2022/07/22 02:08:44;;;;;;;9.07;4.03;;;;;;;;;;5034686;28;20053;-71
2022/07/22 02:11:09;;;;;;;8.15;4.30;;;;;;;;;;5034469;28;20381;-71
2022/07/22 02:13:34;;;;;;;8.32;3.75;;;;;;;;;;5034594;28;20037;-71
2022/07/22 02:15:59;;;;;;;6.88;3.72;;;;;;;;;;5032986;28;20057;-71
2022/07/22 02:18:25;;;;;;;10.70;4.47;;;;;;;;;;5034481;28;20018;-71
2022/07/22 02:20:50;;;;;;;10.23;3.75;;;;;;;;;;5034431;28;20030;-71
2022/07/22 02:23:16;;;;;;;11.88;3.92;;;;;;;;;;5034410;28;21369;-71
2022/07/22 02:25:42;;;;;;;8.80;3.70;;;;;;;;;;5034132;28;20370;-71
2022/07/22 02:28:07;;;;;;;16.00;3.53;;;;;;;;;;5047771;28;20128;-71
2022/07/22 02:30:33;;;;;;;11.85;4.00;;;;;;;;;;5033834;28;20025;-71
2022/07/22 02:32:58;;;;;;;9.68;4.10;;;;;;;;;;5034559;28;20441;-71
2022/07/22 02:35:23;;;;;;;10.20;4.07;;;;;;;;;;5034282;28;20041;-71
2022/07/22 02:37:49;;;;;;;9.77;3.97;;;;;;;;;;5034478;28;20457;-71
2022/07/22 02:40:14;;;;;;;10.70;4.32;;;;;;;;;;5033962;28;20053;-71
2022/07/22 02:42:40;;;;;;;11.13;3.88;;;;;;;;;;5034435;28;20108;-71
2022/07/22 02:45:05;;;;;;;7.78;3.85;;;;;;;;;;5033663;28;20021;-72
2022/07/22 02:47:31;;;;;;;8.60;3.65;;;;;;;;;;5033701;28;20389;-71
2022/07/22 02:49:56;;;;;;;9.93;3.97;;;;;;;;;;5033455;28;20040;-71
2022/07/22 02:52:21;;;;;;;9.45;3.53;;;;;;;;;;5034247;28;20022;-71
2022/07/22 02:54:46;;;;;;;9.45;3.45;;;;;;;;;;5033037;28;20040;-71
2022/07/22 02:57:12;;;;;;;9.05;3.53;;;;;;;;;;5033954;28;20521;-71
2022/07/22 02:59:37;;;;;;;8.27;3.55;;;;;;;;;;5033513;28;20017;-71
2022/07/22 03:02:03;;;;;;;7.35;3.20;;;;;;;;;;5033871;28;20104;-71
2022/07/22 03:04:28;;;;;;;6.85;2.58;;;;;;;;;;5033097;28;20056;-71
2022/07/22 03:06:53;;;;;;;268.45;66.32;;;;;;;;;;5033642;28;20033;-71
2022/07/22 03:09:19;;;;;;;1072.70;511.42;;;;;;;;;;5033068;28;20053;-71
2022/07/22 03:11:44;;;;;;;1999.90;999.90;;;;;;;;;;5033307;28;20407;-71
2022/07/22 03:14:10;;;;;;;9.82;2.17;;;;;;;;;;5033333;28;20079;-71
2022/07/22 03:16:35;;;;;;;14.75;2.75;;;;;;;;;;5033028;28;20029;-71
2022/07/22 03:19:00;;;;;;;8.38;2.13;;;;;;;;;;5032625;28;20064;-71
2022/07/22 03:21:25;;;;;;;8.55;2.10;;;;;;;;;;5033765;28;20060;-71
2022/07/22 03:23:53;;;;;;;9.65;2.20;;;;;;;;;;5032692;28;20037;-71
2022/07/22 03:26:19;;;;;;;11.02;2.42;;;;;;;;;;5033277;28;20037;-71
2022/07/22 03:28:44;;;;;;;4.88;1.85;;;;;;;;;;5032907;28;20021;-71
2022/07/22 03:31:10;;;;;;;5.30;2.10;;;;;;;;;;5033130;28;20096;-71
2022/07/22 03:33:36;;;;;;;4.50;1.58;;;;;;;;;;5033080;28;20473;-71
2022/07/22 03:36:01;;;;;;;0.95;0.95;;;;;;;;;;5033452;28;20041;-72
2022/07/22 03:38:26;;;;;;;0.88;0.80;;;;;;;;;;5032998;28;20127;-71
2022/07/22 03:40:52;;;;;;;0.85;0.80;;;;;;;;;;5032656;28;20061;-71
2022/07/22 03:43:17;;;;;;;0.70;0.70;;;;;;;;;;5031479;28;20025;-71
2022/07/22 03:45:43;;;;;;;2.78;1.45;;;;;;;;;;5032710;28;20365;-71
2022/07/22 03:48:08;;;;;;;0.90;0.70;;;;;;;;;;5032958;28;20083;-71
2022/07/22 03:50:33;;;;;;;1.08;0.98;;;;;;;;;;5032510;28;20044;-71
2022/07/22 03:52:59;;;;;;;5.07;1.90;;;;;;;;;;5033031;28;20071;-71
2022/07/22 03:55:24;;;;;;;1.52;1.02;;;;;;;;;;5033193;28;20038;-71
2022/07/22 03:57:49;;;;;;;1.00;0.90;;;;;;;;;;5032638;28;20049;-71
2022/07/22 04:00:15;;;;;;;0.80;0.70;;;;;;;;;;5032671;28;20017;-70
2022/07/22 04:02:40;;;;;;;0.70;0.70;;;;;;;;;;5033087;28;20046;-71
2022/07/22 04:05:05;;;;;;;0.50;0.50;;;;;;;;;;5032744;28;20017;-71
2022/07/22 04:07:31;;;;;;;1.23;1.15;;;;;;;;;;5032784;28;20400;-71
2022/07/22 04:10:04;;;;;;;1.40;1.30;;;;;;;;;;5032304;28;20030;-71
2022/07/22 04:12:39;;;;;;;0.93;0.93;;;;;;;;;;5032990;28;20053;-71
2022/07/22 04:15:05;;;;;;;0.75;0.75;;;;;;;;;;5029695;28;20263;-71
2022/07/22 04:17:31;;;;;;;0.50;0.50;;;;;;;;;;5032402;28;20030;-71
2022/07/22 04:19:56;;;;;;;0.65;0.65;;;;;;;;;;5032764;28;20047;-71
2022/07/22 04:22:22;;;;;;;0.60;0.60;;;;;;;;;;5032593;28;20033;-70
2022/07/22 04:24:47;;;;;;;0.50;0.50;;;;;;;;;;5032428;28;20030;-71
2022/07/22 04:27:12;;;;;;;0.60;0.60;;;;;;;;;;5032650;28;20033;-71
2022/07/22 04:29:38;;;;;;;0.70;0.70;;;;;;;;;;5032040;28;20400;-70
2022/07/22 04:32:03;;;;;;;1.08;1.02;;;;;;;;;;5032788;28;20031;-71
2022/07/22 04:34:29;;;;;;;0.60;0.60;;;;;;;;;;5032477;28;20068;-71
2022/07/22 04:36:54;;;;;;;0.50;0.50;;;;;;;;;;5032375;28;20025;-71
2022/07/22 04:39:19;;;;;;;1.52;1.40;;;;;;;;;;5032151;28;20033;-71
2022/07/22 04:41:45;;;;;;;0.68;0.68;;;;;;;;;;5032616;28;20100;-71
2022/07/22 04:44:10;;;;;;;0.60;0.60;;;;;;;;;;5031886;28;20025;-71
2022/07/22 04:46:35;;;;;;;0.50;0.50;;;;;;;;;;5032395;28;20096;-71
2022/07/22 04:49:00;;;;;;;0.60;0.60;;;;;;;;;;5032282;28;20076;-71
2022/07/22 04:51:26;;;;;;;1999.90;999.90;;;;;;;;;;5032971;28;20037;-71
2022/07/22 04:53:51;;;;;;;1999.90;999.90;;;;;;;;;;5033516;28;20033;-71
2022/07/22 04:56:16;;;;;;;1999.90;999.90;;;;;;;;;;5036084;28;20500;-71
2022/07/22 04:58:42;;;;;;;1999.90;999.90;;;;;;;;;;5035390;28;20037;-71
2022/07/22 05:01:07;;;;;;;1999.90;999.90;;;;;;;;;;5035841;28;20082;-71
2022/07/22 05:03:32;;;;;;;1999.90;999.90;;;;;;;;;;5035084;28;20373;-71
2022/07/22 05:05:58;;;;;;;1999.90;999.90;;;;;;;;;;5035918;28;20044;-71
2022/07/22 05:08:24;;;;;;;1999.90;999.90;;;;;;;;;;5035943;28;20029;-71
2022/07/22 05:10:49;;;;;;;1999.90;999.90;;;;;;;;;;5035637;28;20417;-70
2022/07/22 05:13:14;;;;;;;1999.90;999.90;;;;;;;;;;5035440;28;20026;-71
2022/07/22 05:15:40;;;;;;;1999.90;999.90;;;;;;;;;;5035169;28;20021;-71
2022/07/22 05:18:05;;;;;;;1999.90;999.90;;;;;;;;;;5035960;28;20503;-71
2022/07/22 05:20:30;;;;;;;1999.90;999.90;;;;;;;;;;5035453;28;20431;-71
2022/07/22 05:22:56;;;;;;;1999.90;999.90;;;;;;;;;;5035552;28;20053;-71
2022/07/22 05:25:21;;;;;;;1999.90;999.90;;;;;;;;;;5035398;28;20117;-71
2022/07/22 05:27:53;;;;;;;1999.90;999.90;;;;;;;;;;5035671;28;20370;-71
2022/07/22 05:30:19;;;;;;;1999.90;999.90;;;;;;;;;;5034576;28;20091;-71
2022/07/22 05:32:44;;;;;;;1999.90;999.90;;;;;;;;;;5035124;28;20022;-71
2022/07/22 05:35:10;;;;;;;1999.90;999.90;;;;;;;;;;5035252;28;20024;-71
2022/07/22 05:37:35;;;;;;;1999.90;999.90;;;;;;;;;;5035663;28;20033;-71
2022/07/22 05:40:00;;;;;;;1999.90;999.90;;;;;;;;;;5034801;28;20049;-71
2022/07/22 05:42:25;;;;;;;1999.90;999.90;;;;;;;;;;5035193;28;20116;-71
2022/07/22 05:44:51;;;;;;;1999.90;999.90;;;;;;;;;;5034878;28;20488;-71
2022/07/22 05:47:16;;;;;;;1999.90;999.90;;;;;;;;;;5034792;28;20078;-71
2022/07/22 05:49:42;;;;;;;1999.90;999.90;;;;;;;;;;5034900;28;20025;-71
2022/07/22 05:52:07;;;;;;;1999.90;999.90;;;;;;;;;;5035385;28;20499;-71
2022/07/22 05:54:32;;;;;;;1999.90;999.90;;;;;;;;;;5034789;28;20369;-70
2022/07/22 05:56:58;;;;;;;1999.90;999.90;;;;;;;;;;5035073;28;20033;-71
2022/07/22 05:59:23;;;;;;;1999.90;999.90;;;;;;;;;;5034498;28;20029;-71
2022/07/22 06:01:48;;;;;;;1999.90;999.90;;;;;;;;;;5034470;28;20079;-71
2022/07/22 06:04:14;;;;;;;1999.90;999.90;;;;;;;;;;5034429;28;20523;-71
2022/07/22 06:06:39;;;;;;;1999.90;999.90;;;;;;;;;;5034990;28;20513;-71
2022/07/22 06:09:04;;;;;;;1999.90;999.90;;;;;;;;;;5034568;28;20018;-71
2022/07/22 06:11:30;;;;;;;1999.90;999.90;;;;;;;;;;5034937;28;20421;-71
2022/07/22 06:13:55;;;;;;;1999.90;999.90;;;;;;;;;;5039372;28;20060;-71
2022/07/22 06:16:20;;;;;;;1999.90;999.90;;;;;;;;;;5034571;28;20503;-71
2022/07/22 06:18:45;;;;;;;1999.90;999.90;;;;;;;;;;5033904;28;20025;-71
2022/07/22 06:21:11;;;;;;;1999.90;999.90;;;;;;;;;;5034826;28;20091;-71
2022/07/22 06:23:36;;;;;;;1999.90;999.90;;;;;;;;;;5034077;28;20026;-71
2022/07/22 06:26:01;;;;;;;1999.90;999.90;;;;;;;;;;5034172;28;20400;-71
2022/07/22 06:28:27;;;;;;;1999.90;999.90;;;;;;;;;;5034655;28;20080;-71
2022/07/22 06:30:52;;;;;;;1999.90;999.90;;;;;;;;;;5033520;28;20424;-71
2022/07/22 06:33:17;;;;;;;1999.90;999.90;;;;;;;;;;5034099;28;20078;-71
2022/07/22 06:35:42;;;;;;;1999.90;999.90;;;;;;;;;;5033573;28;20033;-71
2022/07/22 06:38:08;;;;;;;1999.90;999.90;;;;;;;;;;5034070;28;20021;-71
2022/07/22 06:40:33;;;;;;;1999.90;999.90;;;;;;;;;;5034041;28;20049;-71
2022/07/22 06:42:59;;;;;;;1999.90;999.90;;;;;;;;;;5033938;28;20033;-71
2022/07/22 06:45:24;;;;;;;1999.90;999.90;;;;;;;;;;5033875;28;20014;-71
2022/07/22 06:47:49;;;;;;;1999.90;999.90;;;;;;;;;;5033849;28;20018;-71
2022/07/22 06:50:14;;;;;;;1999.90;999.90;;;;;;;;;;5034007;28;20524;-71
2022/07/22 06:52:40;;;;;;;1999.90;999.90;;;;;;;;;;5034037;28;20493;-71
2022/07/22 06:55:07;;;;;;;1999.90;999.90;;;;;;;;;;5033620;28;20029;-71
2022/07/22 06:57:32;;;;;;;1999.90;999.90;;;;;;;;;;5034038;28;20069;-71
2022/07/22 06:59:57;;;;;;;1999.90;999.90;;;;;;;;;;5030929;28;20084;-71
2022/07/22 07:02:23;;;;;;;1999.90;999.90;;;;;;;;;;5033446;28;20025;-71
2022/07/22 07:04:48;;;;;;;1999.90;999.90;;;;;;;;;;5033406;28;20029;-71
2022/07/22 07:07:13;;;;;;;1999.90;999.90;;;;;;;;;;5034086;28;20069;-71
2022/07/22 07:09:39;;;;;;;1999.90;999.90;;;;;;;;;;5033507;28;20536;-71
2022/07/22 07:12:04;;;;;;;1999.90;999.90;;;;;;;;;;5033772;28;20032;-71
2022/07/22 07:14:29;;;;;;;1999.90;999.90;;;;;;;;;;5033219;28;20075;-71
2022/07/22 07:16:54;;;;;;;1999.90;999.90;;;;;;;;;;5032470;28;20065;-71
2022/07/22 07:19:20;;;;;;;1999.90;999.90;;;;;;;;;;5032965;28;20064;-71
2022/07/22 07:21:45;;;;;;;1999.90;999.90;;;;;;;;;;5033353;28;20029;-71
2022/07/22 07:24:11;;;;;;;1999.90;999.90;;;;;;;;;;5032948;28;20029;-71
2022/07/22 07:26:36;;;;;;;1999.90;999.90;;;;;;;;;;5033235;28;20469;-71
2022/07/22 07:29:01;;;;;;;1999.90;999.90;;;;;;;;;;5032705;28;20022;-70
2022/07/22 07:31:27;;;;;;;1999.90;999.90;;;;;;;;;;5033096;28;20026;-71
2022/07/22 07:33:53;;;;;;;1999.90;999.90;;;;;;;;;;5032282;28;20444;-71
2022/07/22 07:36:19;;;;;;;1999.90;999.90;;;;;;;;;;5033388;28;20105;-71
2022/07/22 07:38:44;;;;;;;1999.90;999.90;;;;;;;;;;5032545;28;20113;-71
2022/07/22 07:41:10;;;;;;;1999.90;999.90;;;;;;;;;;5033526;28;20053;-71
2022/07/22 07:43:35;;;;;;;1999.90;999.90;;;;;;;;;;5032802;28;20110;-71
2022/07/22 07:46:00;;;;;;;1999.90;999.90;;;;;;;;;;5033343;28;20040;-70
2022/07/22 07:48:26;;;;;;;1999.90;999.90;;;;;;;;;;5033288;28;20492;-71
2022/07/22 07:50:51;;;;;;;1999.90;999.90;;;;;;;;;;5033267;28;20014;-71
2022/07/22 07:53:17;;;;;;;1999.90;999.90;;;;;;;;;;5033007;28;20022;-71
2022/07/22 07:55:42;;;;;;;1999.90;999.90;;;;;;;;;;5033164;28;20465;-71
2022/07/22 07:58:07;;;;;;;1999.90;999.90;;;;;;;;;;5033094;28;20508;-71
2022/07/22 08:00:34;;;;;;;1999.90;999.90;;;;;;;;;;5032512;28;20025;-71
2022/07/22 08:03:00;;;;;;;1999.90;999.90;;;;;;;;;;5033044;28;20030;-71
2022/07/22 08:05:25;;;;;;;1999.90;999.90;;;;;;;;;;5033102;28;20028;-71
2022/07/22 08:07:51;;;;;;;1999.90;999.90;;;;;;;;;;5032155;28;20057;-71
2022/07/22 08:10:17;;;;;;;1999.90;999.90;;;;;;;;;;5031413;28;20036;-71
2022/07/22 08:12:42;;;;;;;1999.90;999.90;;;;;;;;;;5031647;28;20036;-72
2022/07/22 08:15:07;;;;;;;1999.90;999.90;;;;;;;;;;5032618;28;20038;-71
2022/07/22 08:17:33;;;;;;;1999.90;999.90;;;;;;;;;;5032932;28;20021;-71
2022/07/22 08:19:59;;;;;;;1999.90;999.90;;;;;;;;;;5032817;28;20041;-71
2022/07/22 08:22:24;;;;;;;1999.90;999.90;;;;;;;;;;5032950;28;20458;-71
2022/07/22 08:24:49;;;;;;;1999.90;999.90;;;;;;;;;;5032594;28;20123;-71
2022/07/22 08:27:15;;;;;;;1999.90;999.90;;;;;;;;;;5033677;28;20040;-71
2022/07/22 08:29:40;;;;;;;1999.90;999.90;;;;;;;;;;5036344;28;20029;-71
2022/07/22 08:32:05;;;;;;;1999.90;999.90;;;;;;;;;;5036476;28;20025;-71
2022/07/22 08:34:31;;;;;;;1999.90;999.90;;;;;;;;;;5036684;28;20017;-71
2022/07/22 08:36:56;;;;;;;1999.90;999.90;;;;;;;;;;5036291;28;20025;-71
2022/07/22 08:39:21;;;;;;;1999.90;999.90;;;;;;;;;;5036419;28;20037;-71
2022/07/22 08:41:47;;;;;;;1999.90;999.90;;;;;;;;;;5036602;28;20021;-71
2022/07/22 08:44:12;;;;;;;1999.90;999.90;;;;;;;;;;5036651;28;20037;-71
2022/07/22 08:46:37;;;;;;;1999.90;999.90;;;;;;;;;;5036295;28;20042;-71
2022/07/22 08:49:03;;;;;;;1999.90;999.90;;;;;;;;;;5036117;28;20018;-71
2022/07/22 08:51:29;;;;;;;1999.90;999.90;;;;;;;;;;5036603;28;20052;-71
2022/07/22 08:53:54;;;;;;;1999.90;999.90;;;;;;;;;;5035938;28;20059;-71
2022/07/22 08:56:20;;;;;;;1999.90;999.90;;;;;;;;;;5028409;28;20406;-71
2022/07/22 08:58:46;;;;;;;1999.90;999.90;;;;;;;;;;5032239;28;20385;-71
2022/07/22 09:01:16;;;;;;;1999.90;999.90;;;;;;;;;;5023595;28;20026;-71
2022/07/22 09:03:58;;;;;;;1999.90;999.90;;;;;;;;;;5027192;28;20032;-71
2022/07/22 09:06:24;;;;;;;1999.90;999.90;;;;;;;;;;5021768;28;20154;-70
2022/07/22 09:08:53;;;;;;;1999.90;999.90;;;;;;;;;;5020236;28;20045;-70
2022/07/22 09:11:19;;;;;;;1999.90;999.90;;;;;;;;;;5027911;28;20116;-70
2022/07/22 09:13:45;;;;;;;5.13;2.15;;;;;;;;;;5030444;28;20033;-71
2022/07/22 09:16:10;;;;;;;10.75;5.95;;;;;;;;;;5029100;28;20087;-72
2022/07/22 09:18:49;;;;;;;10.02;3.78;;;;;;;;;;5029709;28;20026;-71
2022/07/22 09:21:14;;;;;;;1999.90;999.90;;;;;;;;;;5031155;28;20470;-71
2022/07/22 09:23:41;;;;;;;1999.90;999.90;;;;;;;;;;5030359;28;20037;-72
2022/07/22 09:26:06;;;;;;;1999.90;999.90;;;;;;;;;;5031164;28;20087;-71
2022/07/22 09:28:31;;;;;;;1999.90;999.90;;;;;;;;;;5032216;28;20033;-71
2022/07/22 09:30:57;;;;;;;536.75;271.63;;;;;;;;;;5031619;28;20099;-71
2022/07/22 09:33:22;;;;;;;10.52;3.35;;;;;;;;;;5032165;28;20124;-71
2022/07/22 09:35:48;;;;;;;9.07;2.67;;;;;;;;;;5031263;28;20378;-71
2022/07/22 09:38:14;;;;;;;7.53;2.55;;;;;;;;;;5031407;28;20072;-71
2022/07/22 09:40:43;;;;;;;10.25;2.88;;;;;;;;;;5030143;28;20073;-71
2022/07/22 09:43:14;;;;;;;16.20;2.50;;;;;;;;;;5031879;28;20033;-71
2022/07/22 09:45:53;;;;;;;9.25;2.20;;;;;;;;;;5031413;28;20029;-72
2022/07/22 09:48:19;;;;;;;10.70;2.65;;;;;;;;;;5030900;28;20061;-71
2022/07/22 09:50:45;;;;;;;9.88;1.98;;;;;;;;;;5030134;28;20053;-72
2022/07/22 09:53:10;;;;;;;9.77;2.20;;;;;;;;;;5031503;28;20017;-71
2022/07/22 09:55:38;;;;;;;9.35;2.28;;;;;;;;;;5031628;28;20029;-72
2022/07/22 09:58:04;;;;;;;5.10;2.15;;;;;;;;;;5031167;28;20041;-71
2022/07/22 10:00:29;;;;;;;10.77;2.33;;;;;;;;;;5027603;28;20029;-72
2022/07/22 10:02:54;;;;;;;10.32;2.38;;;;;;;;;;5033287;28;20033;-72
2022/07/22 10:05:22;;;;;;;7.00;2.78;;;;;;;;;;5033728;28;20032;-71
2022/07/22 10:07:47;;;;;;;5.57;2.30;;;;;;;;;;5028550;28;20041;-71
2022/07/22 10:10:14;;;;;;;8.05;3.08;;;;;;;;;;5032835;28;20144;-72
2022/07/22 10:12:40;;;;;;;10.20;3.78;;;;;;;;;;5034098;28;20029;-71
2022/07/22 10:15:07;;;;;;;8.45;3.58;;;;;;;;;;5034389;28;20018;-71
2022/07/22 10:17:33;;;;;;;11.73;4.75;;;;;;;;;;5033671;28;20072;-72
2022/07/22 10:19:58;;;;;;;11.32;5.80;;;;;;;;;;5031631;28;20057;-72
2022/07/22 10:22:38;;;;;;;9.48;6.72;;;;;;;;;;5032296;28;20029;-72
2022/07/22 10:25:04;;;;;;;10.85;4.78;;;;;;;;;;5033691;28;20029;-71
2022/07/22 10:27:45;;;;;;;6.38;4.35;;;;;;;;;;5033331;28;20401;-71
2022/07/22 10:30:11;;;;;;;9.32;5.10;;;;;;;;;;5029432;28;20038;-71
2022/07/22 10:32:36;;;;;;;97.78;89.13;;;;;;;;;;5031505;28;20033;-71
2022/07/22 10:35:03;;;;;;;1512.60;754.35;;;;;;;;;;5033267;28;20053;-72
2022/07/22 10:37:34;;;;;;;15.38;7.03;;;;;;;;;;5032565;28;20087;-72
2022/07/22 10:40:15;;;;;;;151.55;56.58;;;;;;;;;;5032852;28;20046;-72
2022/07/22 10:42:56;;;;;;;220.88;206.82;;;;;;;;;;5032119;28;20025;-71
2022/07/22 10:45:23;;;;;;;52.92;47.58;;;;;;;;;;5032608;28;20044;-71
2022/07/22 10:47:52;;;;;;;1999.90;999.90;;;;;;;;;;5029051;28;20088;-72
2022/07/22 10:50:38;;;;;;;289.55;44.72;;;;;;;;;;5032798;28;20034;-72
2022/07/22 10:53:05;;;;;;;11.68;5.45;;;;;;;;;;5023114;28;20037;-71
2022/07/22 10:55:30;;;;;;;6.38;2.80;;;;;;;;;;5032850;28;20041;-72
2022/07/22 10:57:55;;;;;;;5.35;2.35;;;;;;;;;;5033256;28;20025;-72
2022/07/22 11:00:20;;;;;;;11.48;4.18;;;;;;;;;;5032772;28;20127;-72
2022/07/22 11:02:46;;;;;;;9.80;3.28;;;;;;;;;;5033046;28;20108;-72
2022/07/22 11:05:11;;;;;;;9.85;3.45;;;;;;;;;;5032075;28;20029;-72
2022/07/22 11:07:46;;;;;;;15.70;4.15;;;;;;;;;;5032941;28;20465;-72
2022/07/22 11:10:13;;;;;;;9.82;3.78;;;;;;;;;;5032377;28;20048;-72
2022/07/22 11:12:38;;;;;;;9.88;3.60;;;;;;;;;;5033122;28;20052;-71
2022/07/22 11:15:07;;;;;;;10.85;3.78;;;;;;;;;;5032985;28;20064;-72
2022/07/22 11:17:34;;;;;;;10.23;4.18;;;;;;;;;;5033136;28;20021;-71
2022/07/22 11:20:03;;;;;;;10.27;3.55;;;;;;;;;;5032148;28;20047;-72
2022/07/22 11:22:29;;;;;;;9.13;3.53;;;;;;;;;;5033039;28;20034;-71
2022/07/22 11:24:54;;;;;;;8.07;3.38;;;;;;;;;;5032972;28;20018;-71
2022/07/22 11:27:23;;;;;;;8.30;3.30;;;;;;;;;;5033074;28;20041;-72
2022/07/22 11:29:50;;;;;;;8.70;3.22;;;;;;;;;;5032988;28;20025;-71
2022/07/22 11:32:15;;;;;;;8.25;3.22;;;;;;;;;;5033179;28;20369;-72
2022/07/22 11:34:44;;;;;;;11.98;3.80;;;;;;;;;;5031612;28;20029;-72
2022/07/22 11:37:10;;;;;;;10.13;3.47;;;;;;;;;;5031868;28;20033;-71
2022/07/22 11:39:35;;;;;;;8.80;3.45;;;;;;;;;;5033366;28;20440;-72
2022/07/22 11:42:01;;;;;;;8.68;3.33;;;;;;;;;;5032367;28;20457;-71
2022/07/22 11:44:27;;;;;;;9.82;3.47;;;;;;;;;;5033237;28;20032;-71
2022/07/22 11:46:53;;;;;;;6.40;3.30;;;;;;;;;;5033122;28;20040;-72
2022/07/22 11:49:19;;;;;;;8.85;3.97;;;;;;;;;;5033316;28;20025;-72
2022/07/22 11:51:44;;;;;;;8.85;3.60;;;;;;;;;;5032997;28;20044;-71
2022/07/22 11:54:10;;;;;;;8.45;3.47;;;;;;;;;;5032528;28;20017;-72
2022/07/22 11:56:36;;;;;;;9.15;3.35;;;;;;;;;;5031912;28;20457;-72
2022/07/22 11:59:04;;;;;;;8.85;3.40;;;;;;;;;;5033001;28;20044;-72
2022/07/22 12:01:30;;;;;;;9.95;4.03;;;;;;;;;;5033497;28;20018;-72
2022/07/22 12:04:00;;;;;;;9.25;3.60;;;;;;;;;;5039266;28;20017;-71
2022/07/22 12:06:26;;;;;;;11.30;3.72;;;;;;;;;;5039509;28;20543;-71
2022/07/22 12:08:55;;;;;;;10.50;3.70;;;;;;;;;;5039470;28;20045;-72
2022/07/22 12:11:21;;;;;;;8.07;3.80;;;;;;;;;;5039677;28;20033;-72
2022/07/22 12:13:48;;;;;;;10.25;3.70;;;;;;;;;;5038903;28;20032;-71
2022/07/22 12:16:17;;;;;;;8.43;3.80;;;;;;;;;;5039758;28;20032;-72
2022/07/22 12:18:42;;;;;;;9.40;3.53;;;;;;;;;;5039433;28;20037;-72
2022/07/22 12:21:08;;;;;;;6.40;2.97;;;;;;;;;;5039227;28;20029;-71
2022/07/22 12:23:33;;;;;;;13.65;4.40;;;;;;;;;;5039225;28;20053;-72
2022/07/22 12:26:00;;;;;;;9.32;3.33;;;;;;;;;;5038700;28;20056;-72
2022/07/22 12:28:25;;;;;;;7.93;3.28;;;;;;;;;;5029438;28;20041;-71
2022/07/22 12:30:52;;;;;;;11.80;3.45;;;;;;;;;;5034753;28;20362;-72
2022/07/22 12:33:18;;;;;;;11.15;4.03;;;;;;;;;;5035434;28;20028;-71
2022/07/22 12:35:43;;;;;;;10.52;5.32;;;;;;;;;;5037029;28;20041;-71
2022/07/22 12:38:09;;;;;;;8.77;4.50;;;;;;;;;;5036302;28;20017;-72
2022/07/22 12:40:35;;;;;;;10.90;5.07;;;;;;;;;;5035539;28;20067;-71
2022/07/22 12:43:07;;;;;;;14.10;4.13;;;;;;;;;;5035397;28;20029;-71
2022/07/22 12:45:34;;;;;;;10.40;3.80;;;;;;;;;;5035570;28;20036;-71
2022/07/22 12:48:06;;;;;;;9.75;3.42;;;;;;;;;;5035610;28;20037;-71
2022/07/22 12:50:34;;;;;;;9.05;3.53;;;;;;;;;;5032719;28;20057;-72
2022/07/22 12:53:06;;;;;;;8.77;3.83;;;;;;;;;;5029999;28;20052;-71
2022/07/22 12:55:35;;;;;;;9.57;3.88;;;;;;;;;;5034929;28;20053;-71
2022/07/22 12:58:01;;;;;;;10.75;3.88;;;;;;;;;;5035980;28;20068;-71
2022/07/22 13:00:28;;;;;;;6.75;3.08;;;;;;;;;;5034748;28;20048;-71
2022/07/22 13:02:53;;;;;;;7.80;3.53;;;;;;;;;;5035052;28;20025;-72
2022/07/22 13:05:19;;;;;;;5.80;3.10;;;;;;;;;;5034428;28;20025;-71
2022/07/22 13:07:44;;;;;;;10.68;3.58;;;;;;;;;;5035951;28;20053;-71
2022/07/22 13:10:11;;;;;;;8.40;2.80;;;;;;;;;;5034436;28;20044;-71
2022/07/22 13:12:36;;;;;;;12.23;4.28;;;;;;;;;;5035385;28;20030;-71
2022/07/22 13:15:02;;;;;;;5.68;2.92;;;;;;;;;;5031947;28;20032;-71
2022/07/22 13:17:27;;;;;;;11.57;3.72;;;;;;;;;;5033182;28;20079;-71
2022/07/22 13:19:53;;;;;;;11.60;3.35;;;;;;;;;;5032345;28;20060;-71
2022/07/22 13:22:18;;;;;;;8.43;3.13;;;;;;;;;;5031845;28;20037;-72
2022/07/22 13:24:43;;;;;;;7.93;3.33;;;;;;;;;;5032108;28;20025;-72
2022/07/22 13:27:08;;;;;;;12.15;3.35;;;;;;;;;;5031160;28;21234;-71
2022/07/22 13:29:34;;;;;;;8.30;3.58;;;;;;;;;;5033316;28;20024;-72
2022/07/22 13:31:59;;;;;;;8.68;3.40;;;;;;;;;;5031384;28;20139;-71
2022/07/22 13:34:25;;;;;;;11.55;3.30;;;;;;;;;;5032230;28;20029;-72
2022/07/22 13:36:50;;;;;;;12.90;3.63;;;;;;;;;;5030617;28;20192;-72
2022/07/22 13:39:16;;;;;;;9.57;3.58;;;;;;;;;;5032062;28;20151;-71
2022/07/22 13:41:41;;;;;;;6.93;4.20;;;;;;;;;;5030313;28;20036;-71
2022/07/22 13:44:06;;;;;;;10.88;3.53;;;;;;;;;;5031963;28;20048;-71
2022/07/22 13:46:35;;;;;;;8.02;3.20;;;;;;;;;;5031461;28;20048;-71
2022/07/22 13:49:00;;;;;;;9.88;3.30;;;;;;;;;;5031510;28;20045;-71
2022/07/22 13:51:26;;;;;;;8.93;3.45;;;;;;;;;;5031665;28;20030;-71
2022/07/22 13:53:51;;;;;;;9.88;3.05;;;;;;;;;;5031321;28;20097;-71
2022/07/22 13:56:16;;;;;;;9.77;3.67;;;;;;;;;;5032184;28;20071;-71
2022/07/22 13:58:42;;;;;;;12.15;3.53;;;;;;;;;;5031519;28;20026;-71
2022/07/22 14:01:08;;;;;;;13.02;3.85;;;;;;;;;;5031373;28;20017;-71
2022/07/22 14:03:34;;;;;;;10.10;3.88;;;;;;;;;;5031556;28;20056;-72
2022/07/22 14:05:59;;;;;;;9.27;3.80;;;;;;;;;;5031089;28;20033;-71
2022/07/22 14:08:24;;;;;;;18.63;4.85;;;;;;;;;;5031249;28;20018;-72
2022/07/22 14:10:50;;;;;;;8.65;3.38;;;;;;;;;;5031220;28;20025;-72